createdAt,value
2019-05-19T00:00:49.123Z,5.93
2019-05-19T00:03:17.424Z,6.10
2019-05-19T00:05:45.687Z,10.60
2019-05-19T00:08:13.971Z,8.50
2019-05-19T00:10:42.230Z,7.10
2019-05-19T00:13:10.529Z,5.93
2019-05-19T00:15:38.783Z,5.50
2019-05-19T00:18:07.106Z,5.60
2019-05-19T00:20:35.474Z,4.67
2019-05-19T00:23:03.758Z,5.10
2019-05-19T00:25:32.787Z,5.23
2019-05-19T00:28:01.119Z,4.77
2019-05-19T00:30:29.389Z,4.60
2019-05-19T00:32:57.664Z,5.70
2019-05-19T00:35:25.968Z,5.17
2019-05-19T00:37:54.293Z,5.37
2019-05-19T00:40:22.549Z,5.27
2019-05-19T00:42:50.810Z,5.17
2019-05-19T00:45:19.188Z,5.40
2019-05-19T00:47:47.529Z,5.33
2019-05-19T00:50:15.940Z,5.07
2019-05-19T00:52:44.292Z,6.27
2019-05-19T00:55:12.642Z,5.40
2019-05-19T00:57:41.055Z,5.03
2019-05-19T01:00:09.835Z,5.50
2019-05-19T01:02:38.112Z,6.07
2019-05-19T01:05:07.407Z,5.70
2019-05-19T01:07:36.703Z,5.50
2019-05-19T01:10:08.607Z,6.07
2019-05-19T01:12:36.860Z,5.20
2019-05-19T01:15:09.767Z,5.70
2019-05-19T01:17:38.208Z,5.60
2019-05-19T01:20:10.609Z,5.57
2019-05-19T01:22:38.998Z,5.70
2019-05-19T01:25:07.991Z,5.33
2019-05-19T01:27:36.326Z,6.10
2019-05-19T01:30:11.385Z,5.67
2019-05-19T01:32:39.658Z,5.20
2019-05-19T01:35:08.497Z,5.60
2019-05-19T01:37:37.870Z,5.33
2019-05-19T01:40:07.965Z,6.03
2019-05-19T01:42:36.609Z,6.10
2019-05-19T01:45:06.875Z,5.43
2019-05-19T01:47:35.163Z,6.33
2019-05-19T01:50:16.831Z,5.90
2019-05-19T01:52:35.115Z,5.20
2019-05-19T01:55:04.489Z,5.27
2019-05-19T01:57:33.804Z,11.63
2019-05-19T02:00:03.148Z,5.57
2019-05-19T02:02:31.837Z,5.80
2019-05-19T02:05:00.134Z,6.00
2019-05-19T02:07:28.417Z,5.60
2019-05-19T02:09:56.670Z,6.00
2019-05-19T02:12:25.922Z,6.20
2019-05-19T02:14:55.212Z,6.17
2019-05-19T02:17:23.469Z,6.53
2019-05-19T02:19:51.808Z,7.53
2019-05-19T02:22:21.067Z,7.27
2019-05-19T02:24:49.327Z,7.03
2019-05-19T02:27:17.643Z,7.60
2019-05-19T02:29:45.958Z,19.93
2019-05-19T02:32:14.228Z,8.40
2019-05-19T02:34:43.507Z,8.23
2019-05-19T02:37:11.772Z,8.20
2019-05-19T02:39:40.033Z,8.30
2019-05-19T02:42:08.572Z,8.00
2019-05-19T02:44:36.890Z,9.03
2019-05-19T02:47:05.629Z,9.97
2019-05-19T02:49:35.102Z,11.20
2019-05-19T02:52:04.641Z,11.83
2019-05-19T02:54:33.676Z,15.13
2019-05-19T02:57:03.244Z,13.20
2019-05-19T02:59:32.173Z,15.50
2019-05-19T03:02:02.106Z,17.17
2019-05-19T03:04:30.459Z,17.90
2019-05-19T03:06:58.773Z,20.07
2019-05-19T03:09:28.114Z,19.57
2019-05-19T03:11:56.379Z,19.33
2019-05-19T03:14:24.810Z,18.37
2019-05-19T03:16:53.152Z,19.03
2019-05-19T03:19:21.421Z,18.47
2019-05-19T03:21:51.720Z,21.20
2019-05-19T03:24:20.108Z,18.83
2019-05-19T03:26:49.233Z,19.50
2019-05-19T03:29:19.220Z,18.07
2019-05-19T03:31:58.518Z,18.57
2019-05-19T03:34:27.648Z,19.97
2019-05-19T03:36:55.945Z,16.80
2019-05-19T03:39:24.689Z,17.40
2019-05-19T03:41:52.947Z,18.40
2019-05-19T03:44:21.223Z,17.87
2019-05-19T03:46:49.509Z,17.87
2019-05-19T03:49:17.773Z,18.47
2019-05-19T03:51:46.030Z,19.03
2019-05-19T03:54:14.317Z,17.87
2019-05-19T03:56:42.609Z,20.23
2019-05-19T03:59:10.957Z,20.73
2019-05-19T04:01:39.302Z,20.63
2019-05-19T04:04:09.628Z,19.73
2019-05-19T04:06:37.920Z,21.33
2019-05-19T04:09:07.670Z,20.97
2019-05-19T04:11:36.070Z,19.03
2019-05-19T04:14:04.396Z,20.60
2019-05-19T04:16:32.658Z,20.87
2019-05-19T04:19:00.931Z,20.40
2019-05-19T04:21:38.793Z,20.90
2019-05-19T04:23:59.239Z,21.20
2019-05-19T04:26:28.560Z,25.63
2019-05-19T04:28:56.816Z,25.20
2019-05-19T04:31:26.336Z,23.70
2019-05-19T04:33:54.625Z,24.63
2019-05-19T04:36:22.892Z,26.37
2019-05-19T04:38:51.166Z,26.57
2019-05-19T04:41:19.435Z,29.90
2019-05-19T04:43:47.705Z,27.40
2019-05-19T04:46:16.997Z,30.30
2019-05-19T04:48:45.266Z,28.43
2019-05-19T04:51:13.809Z,27.43
2019-05-19T04:53:42.033Z,29.00
2019-05-19T04:56:10.308Z,26.53
2019-05-19T04:58:38.604Z,28.73
2019-05-19T05:01:06.869Z,29.53
2019-05-19T05:03:35.145Z,28.10
2019-05-19T05:06:03.431Z,28.60
2019-05-19T05:08:31.701Z,27.00
2019-05-19T05:10:59.983Z,27.60
2019-05-19T05:13:28.263Z,28.97
2019-05-19T05:15:56.531Z,28.07
2019-05-19T05:18:26.858Z,27.33
2019-05-19T05:20:55.152Z,29.57
2019-05-19T05:23:23.411Z,27.00
2019-05-19T05:25:51.682Z,27.30
2019-05-19T05:28:19.990Z,28.00
2019-05-19T05:30:48.273Z,28.93
2019-05-19T05:33:16.539Z,28.70
2019-05-19T05:35:44.822Z,30.33
2019-05-19T05:38:13.093Z,28.40
2019-05-19T05:40:42.391Z,29.60
2019-05-19T05:43:10.691Z,27.90
2019-05-19T05:45:38.956Z,27.53
2019-05-19T05:48:07.251Z,28.60
2019-05-19T05:50:35.521Z,27.43
2019-05-19T05:53:03.790Z,27.27
2019-05-19T05:55:32.070Z,27.73
2019-05-19T05:58:00.306Z,28.93
2019-05-19T06:00:28.591Z,27.80
2019-05-19T06:02:56.875Z,27.67
2019-05-19T06:05:25.171Z,28.17
2019-05-19T06:07:53.441Z,25.80
2019-05-19T06:10:21.731Z,26.77
2019-05-19T06:12:49.981Z,25.97
2019-05-19T06:15:18.257Z,25.67
2019-05-19T06:17:46.543Z,26.10
2019-05-19T06:20:16.857Z,25.33
2019-05-19T06:22:56.023Z,26.73
2019-05-19T06:25:15.267Z,27.77
2019-05-19T06:27:43.540Z,25.63
2019-05-19T06:30:12.161Z,27.70
2019-05-19T06:32:45.043Z,26.70
2019-05-19T06:35:13.855Z,27.30
2019-05-19T06:37:42.166Z,25.80
2019-05-19T06:40:10.797Z,24.10
2019-05-19T06:42:40.163Z,25.10
2019-05-19T06:45:08.782Z,25.57
2019-05-19T06:47:37.159Z,25.57
2019-05-19T06:50:07.255Z,25.37
2019-05-19T06:52:35.521Z,25.73
2019-05-19T06:55:05.223Z,25.50
2019-05-19T06:57:33.542Z,25.70
2019-05-19T07:00:01.823Z,24.73
2019-05-19T07:02:30.096Z,24.33
2019-05-19T07:04:58.378Z,24.70
2019-05-19T07:07:26.635Z,22.30
2019-05-19T07:09:58.591Z,23.37
2019-05-19T07:12:24.910Z,20.63
2019-05-19T07:14:53.178Z,20.50
2019-05-19T07:17:21.437Z,17.30
2019-05-19T07:19:49.711Z,18.00
2019-05-19T07:22:17.988Z,15.60
2019-05-19T07:24:46.270Z,15.73
2019-05-19T07:27:14.560Z,17.43
2019-05-19T07:29:42.839Z,15.27
2019-05-19T07:32:11.111Z,15.47
2019-05-19T07:34:39.413Z,17.03
2019-05-19T07:37:07.732Z,17.23
2019-05-19T07:39:36.027Z,15.23
2019-05-19T07:42:04.366Z,16.07
2019-05-19T07:44:32.622Z,13.00
2019-05-19T07:47:00.914Z,13.60
2019-05-19T07:49:29.200Z,13.97
2019-05-19T07:51:57.654Z,13.07
2019-05-19T07:54:26.026Z,11.43
2019-05-19T07:56:54.280Z,8.80
2019-05-19T07:59:22.557Z,6.90
2019-05-19T08:01:50.889Z,7.43
2019-05-19T08:04:19.292Z,9.93
2019-05-19T08:06:47.726Z,10.10
2019-05-19T08:09:16.948Z,12.60
2019-05-19T08:11:45.243Z,13.13
2019-05-19T08:14:13.514Z,13.77
2019-05-19T08:16:41.821Z,12.33
2019-05-19T08:19:10.164Z,14.93
2019-05-19T08:21:38.443Z,13.20
2019-05-19T08:24:07.286Z,11.40
2019-05-19T08:26:36.484Z,11.47
2019-05-19T08:29:04.855Z,9.57
2019-05-19T08:31:33.463Z,10.00
2019-05-19T08:34:01.774Z,9.17
2019-05-19T08:36:30.104Z,9.20
2019-05-19T08:38:58.415Z,8.07
2019-05-19T08:41:26.815Z,8.30
2019-05-19T08:43:55.075Z,9.70
2019-05-19T08:46:23.354Z,8.00
2019-05-19T08:48:51.657Z,8.97
2019-05-19T08:51:19.926Z,8.17
2019-05-19T08:53:48.213Z,8.60
2019-05-19T08:56:16.476Z,8.57
2019-05-19T08:58:44.762Z,8.90
2019-05-19T09:01:13.031Z,9.70
2019-05-19T09:03:41.382Z,10.10
2019-05-19T09:06:09.672Z,10.10
2019-05-19T09:08:38.011Z,9.43
2019-05-19T09:11:06.303Z,10.70
2019-05-19T09:13:34.596Z,12.40
2019-05-19T09:16:04.276Z,10.07
2019-05-19T09:18:32.562Z,10.83
2019-05-19T09:21:00.824Z,10.23
2019-05-19T09:23:29.127Z,9.50
2019-05-19T09:25:57.444Z,9.00
2019-05-19T09:28:25.817Z,10.23
2019-05-19T09:30:54.101Z,9.93
2019-05-19T09:33:22.382Z,9.50
2019-05-19T09:35:50.643Z,9.57
2019-05-19T09:38:18.934Z,9.30
2019-05-19T09:40:47.193Z,8.70
2019-05-19T09:43:15.557Z,8.23
2019-05-19T09:45:43.877Z,8.10
2019-05-19T09:48:12.238Z,8.70
2019-05-19T09:50:40.527Z,8.93
2019-05-19T09:53:08.822Z,7.83
2019-05-19T09:55:37.048Z,8.87
2019-05-19T09:58:05.367Z,7.50
2019-05-19T10:00:34.632Z,9.60
2019-05-19T10:03:02.916Z,8.23
2019-05-19T10:05:31.190Z,7.93
2019-05-19T10:07:59.455Z,7.20
2019-05-19T10:10:51.938Z,7.80
2019-05-19T10:13:20.661Z,8.07
2019-05-19T10:15:49.007Z,8.27
2019-05-19T10:18:19.210Z,7.70
2019-05-19T10:20:50.305Z,8.03
2019-05-19T10:23:17.478Z,7.57
2019-05-19T10:25:45.734Z,7.07
2019-05-19T10:28:14.024Z,6.80
2019-05-19T10:30:42.280Z,7.27
2019-05-19T10:33:10.570Z,7.73
2019-05-19T10:35:38.856Z,6.90
2019-05-19T10:38:07.211Z,6.53
2019-05-19T10:40:35.475Z,6.80
2019-05-19T10:43:03.888Z,7.33
2019-05-19T10:45:32.150Z,7.20
2019-05-19T10:48:00.436Z,6.37
2019-05-19T10:50:28.703Z,7.97
2019-05-19T10:52:56.987Z,8.60
2019-05-19T10:55:35.961Z,7.63
2019-05-19T10:57:55.334Z,6.73
2019-05-19T11:00:23.732Z,6.60
2019-05-19T11:02:51.983Z,7.20
2019-05-19T11:05:20.268Z,6.60
2019-05-19T11:07:48.555Z,6.07
2019-05-19T11:10:16.818Z,6.20
2019-05-19T11:12:46.924Z,6.53
2019-05-19T11:15:15.362Z,5.57
2019-05-19T11:17:43.712Z,5.70
2019-05-19T11:20:12.045Z,6.83
2019-05-19T11:22:40.311Z,7.67
2019-05-19T11:25:08.770Z,7.00
2019-05-19T11:27:37.018Z,6.50
2019-05-19T11:30:06.748Z,7.10
2019-05-19T11:32:35.025Z,6.63
2019-05-19T11:35:03.766Z,6.67
2019-05-19T11:37:32.063Z,6.93
2019-05-19T11:40:00.452Z,6.20
2019-05-19T11:42:28.733Z,6.20
2019-05-19T11:44:57.025Z,6.50
2019-05-19T11:47:25.308Z,6.27
2019-05-19T11:49:53.611Z,5.10
2019-05-19T11:52:21.879Z,4.83
2019-05-19T11:54:50.170Z,5.20
2019-05-19T11:57:18.448Z,5.37
2019-05-19T11:59:46.711Z,4.73
2019-05-19T12:02:14.985Z,5.20
2019-05-19T12:04:43.264Z,5.70
2019-05-19T12:07:11.566Z,5.60
2019-05-19T12:09:47.269Z,5.20
2019-05-19T12:12:17.507Z,4.33
2019-05-19T12:14:45.969Z,5.27
2019-05-19T12:17:14.239Z,4.70
2019-05-19T12:19:42.490Z,5.60
2019-05-19T12:22:10.784Z,5.07
2019-05-19T12:24:39.123Z,4.80
2019-05-19T12:27:07.389Z,4.40
2019-05-19T12:29:35.644Z,5.03
2019-05-19T12:32:03.920Z,4.37
2019-05-19T12:34:32.421Z,4.93
2019-05-19T12:37:00.685Z,4.50
2019-05-19T12:39:29.089Z,4.20
2019-05-19T12:41:57.415Z,4.00
2019-05-19T12:44:25.695Z,3.87
2019-05-19T12:46:53.970Z,4.90
2019-05-19T12:49:22.249Z,3.87
2019-05-19T12:51:50.535Z,4.87
2019-05-19T12:54:18.831Z,4.10
2019-05-19T12:56:47.075Z,4.20
2019-05-19T12:59:15.364Z,4.40
2019-05-19T13:01:43.723Z,3.70
2019-05-19T13:04:12.072Z,3.60
2019-05-19T13:06:40.326Z,16.10
2019-05-19T13:09:09.665Z,3.80
2019-05-19T13:11:37.956Z,3.80
2019-05-19T13:14:06.307Z,4.23
2019-05-19T13:16:34.623Z,4.47
2019-05-19T13:19:02.904Z,3.67
2019-05-19T13:21:31.162Z,4.40
2019-05-19T13:23:59.482Z,3.70
2019-05-19T13:26:27.761Z,3.73
2019-05-19T13:28:56.020Z,3.50
2019-05-19T13:31:24.292Z,3.35
2019-05-19T13:33:52.563Z,2.92
2019-05-19T13:36:20.827Z,3.10
2019-05-19T13:38:49.095Z,3.77
2019-05-19T13:41:17.377Z,4.07
2019-05-19T13:43:45.678Z,4.03
2019-05-19T13:46:13.953Z,2.93
2019-05-19T13:48:42.233Z,3.73
2019-05-19T13:51:10.527Z,3.00
2019-05-19T13:53:38.836Z,3.30
2019-05-19T13:56:07.119Z,4.10
2019-05-19T13:58:35.412Z,3.63
2019-05-19T14:01:06.676Z,3.87
2019-05-19T14:03:34.950Z,2.77
2019-05-19T14:06:03.250Z,3.33
2019-05-19T14:08:32.558Z,3.63
2019-05-19T14:11:00.837Z,3.50
2019-05-19T14:13:29.096Z,3.40
2019-05-19T14:15:57.466Z,3.47
2019-05-19T14:18:25.848Z,3.47
2019-05-19T14:20:54.120Z,2.80
2019-05-19T14:23:22.427Z,2.42
2019-05-19T14:25:50.701Z,3.60
2019-05-19T14:28:18.966Z,3.10
2019-05-19T14:30:47.266Z,4.00
2019-05-19T14:33:15.518Z,2.62
2019-05-19T14:35:43.816Z,2.70
2019-05-19T14:38:12.075Z,2.50
2019-05-19T14:40:40.341Z,2.80
2019-05-19T14:43:08.655Z,3.05
2019-05-19T14:45:36.919Z,2.95
2019-05-19T14:48:06.270Z,3.05
2019-05-19T14:50:34.632Z,3.20
2019-05-19T14:53:02.899Z,3.67
2019-05-19T14:55:31.172Z,3.10
2019-05-19T14:57:59.441Z,2.58
2019-05-19T15:00:27.717Z,2.70
2019-05-19T15:02:55.980Z,3.02
2019-05-19T15:05:25.265Z,2.52
2019-05-19T15:07:53.562Z,2.70
2019-05-19T15:10:23.942Z,3.15
2019-05-19T15:12:53.855Z,3.02
2019-05-19T15:15:22.197Z,3.02
2019-05-19T15:17:50.546Z,2.75
2019-05-19T15:20:19.428Z,2.65
2019-05-19T15:22:47.716Z,2.45
2019-05-19T15:25:16.844Z,3.30
2019-05-19T15:27:59.335Z,2.87
2019-05-19T15:30:16.352Z,3.63
2019-05-19T15:32:44.700Z,2.73
2019-05-19T15:35:13.306Z,3.10
2019-05-19T15:37:41.680Z,8.88
2019-05-19T15:40:10.319Z,3.00
2019-05-19T15:42:46.631Z,2.60
2019-05-19T15:45:22.091Z,2.23
2019-05-19T15:47:53.627Z,2.63
2019-05-19T15:50:21.975Z,3.33
2019-05-19T15:52:50.231Z,3.90
2019-05-19T15:55:18.486Z,3.17
2019-05-19T15:58:15.732Z,3.47
2019-05-19T16:00:38.498Z,2.70
2019-05-19T16:03:07.896Z,2.87
2019-05-19T16:05:36.296Z,3.30
2019-05-19T16:08:04.821Z,2.67
2019-05-19T16:10:33.122Z,3.20
2019-05-19T16:13:01.384Z,3.03
2019-05-19T16:15:29.678Z,3.30
2019-05-19T16:17:57.967Z,3.10
2019-05-19T16:20:27.449Z,3.70
2019-05-19T16:22:56.683Z,3.07
2019-05-19T16:25:28.209Z,3.63
2019-05-19T16:27:59.808Z,2.90
2019-05-19T16:30:28.104Z,3.40
2019-05-19T16:32:56.495Z,3.17
2019-05-19T16:35:24.853Z,4.13
2019-05-19T16:37:53.109Z,9.70
2019-05-19T16:40:22.734Z,11.80
2019-05-19T16:42:51.165Z,10.10
2019-05-19T16:45:19.907Z,10.03
2019-05-19T16:47:48.246Z,9.83
2019-05-19T16:50:17.601Z,9.13
2019-05-19T16:52:45.898Z,14.73
2019-05-19T16:55:25.479Z,13.87
2019-05-19T16:57:54.119Z,13.20
2019-05-19T17:00:25.996Z,16.87
2019-05-19T17:02:54.369Z,14.30
2019-05-19T17:05:22.642Z,11.70
2019-05-19T17:07:50.921Z,9.10
2019-05-19T17:10:19.740Z,5.90
2019-05-19T17:12:48.018Z,7.00
2019-05-19T17:15:17.637Z,6.47
2019-05-19T17:17:46.963Z,6.07
2019-05-19T17:20:16.788Z,5.80
2019-05-19T17:22:45.105Z,7.23
2019-05-19T17:25:13.562Z,6.80
2019-05-19T17:27:41.845Z,6.40
2019-05-19T17:30:11.079Z,5.70
2019-05-19T17:32:39.440Z,6.87
2019-05-19T17:35:08.066Z,5.80
2019-05-19T17:37:36.460Z,5.87
2019-05-19T17:40:06.210Z,6.23
2019-05-19T17:42:37.174Z,5.90
2019-05-19T17:45:06.187Z,5.60
2019-05-19T17:47:34.663Z,6.57
2019-05-19T17:50:03.035Z,10.70
2019-05-19T17:52:32.290Z,6.90
2019-05-19T17:55:03.193Z,5.53
2019-05-19T17:57:33.142Z,6.03
2019-05-19T18:00:02.266Z,5.90
2019-05-19T18:02:30.615Z,4.63
2019-05-19T18:05:01.348Z,5.17
2019-05-19T18:07:29.683Z,6.17
2019-05-19T18:09:59.874Z,4.17
2019-05-19T18:12:28.170Z,4.80
2019-05-19T18:14:56.455Z,6.47
2019-05-19T18:17:24.748Z,5.37
2019-05-19T18:19:53.016Z,5.63
2019-05-19T18:22:21.278Z,5.83
2019-05-19T18:24:49.566Z,5.00
2019-05-19T18:27:17.824Z,5.10
2019-05-19T18:29:47.138Z,5.43
2019-05-19T18:32:15.414Z,5.83
2019-05-19T18:34:43.670Z,7.33
2019-05-19T18:37:13.527Z,7.00
2019-05-19T18:39:42.076Z,5.27
2019-05-19T18:42:13.098Z,6.13
2019-05-19T18:44:41.356Z,5.07
2019-05-19T18:47:09.660Z,5.53
2019-05-19T18:49:40.153Z,5.70
2019-05-19T18:52:08.461Z,5.03
2019-05-19T18:54:36.793Z,5.40
2019-05-19T18:57:06.117Z,5.23
2019-05-19T18:59:46.527Z,7.37
2019-05-19T19:02:06.418Z,5.37
2019-05-19T19:04:34.822Z,4.63
2019-05-19T19:07:03.148Z,5.23
2019-05-19T19:09:32.545Z,5.10
2019-05-19T19:12:02.368Z,5.27
2019-05-19T19:14:31.530Z,4.97
2019-05-19T19:17:01.813Z,4.73
2019-05-19T19:19:50.975Z,4.83
2019-05-19T19:22:25.383Z,5.20
2019-05-19T19:24:53.695Z,5.50
2019-05-19T19:27:22.072Z,5.90
2019-05-19T19:30:02.835Z,6.73
2019-05-19T19:32:21.376Z,6.30
2019-05-19T19:34:49.692Z,6.17
2019-05-19T19:37:18.961Z,6.43
2019-05-19T19:39:49.283Z,5.73
2019-05-19T19:42:17.640Z,5.53
2019-05-19T19:44:45.891Z,6.10
2019-05-19T19:47:14.141Z,7.60
2019-05-19T19:49:42.430Z,5.63
2019-05-19T19:52:11.097Z,6.60
2019-05-19T19:54:39.370Z,9.40
2019-05-19T19:57:12.270Z,6.07
2019-05-19T19:59:40.630Z,6.70
2019-05-19T20:02:08.921Z,6.20
2019-05-19T20:04:37.201Z,7.07
2019-05-19T20:07:07.118Z,13.10
2019-05-19T20:09:35.566Z,6.93
2019-05-19T20:12:06.431Z,6.93
2019-05-19T20:14:38.611Z,9.17
2019-05-19T20:17:07.266Z,7.90
2019-05-19T20:19:35.542Z,10.50
2019-05-19T20:22:03.812Z,7.27
2019-05-19T20:24:32.082Z,6.97
2019-05-19T20:27:03.539Z,6.97
2019-05-19T20:29:31.928Z,8.70
2019-05-19T20:32:00.210Z,8.13
2019-05-19T20:34:28.495Z,7.50
2019-05-19T20:36:56.850Z,7.53
2019-05-19T20:39:25.140Z,7.53
2019-05-19T20:41:54.964Z,8.07
2019-05-19T20:44:26.120Z,8.73
2019-05-19T20:46:54.392Z,8.37
2019-05-19T20:49:22.672Z,7.97
2019-05-19T20:51:53.904Z,8.07
2019-05-19T20:54:22.184Z,9.63
2019-05-19T20:56:50.446Z,8.60
2019-05-19T20:59:18.719Z,8.40
2019-05-19T21:01:59.204Z,8.73
2019-05-19T21:04:27.418Z,8.67
2019-05-19T21:06:58.539Z,10.07
2019-05-19T21:09:26.874Z,8.77
2019-05-19T21:11:57.634Z,9.00
2019-05-19T21:14:26.035Z,8.50
2019-05-19T21:16:54.477Z,9.70
2019-05-19T21:19:22.805Z,9.30
2019-05-19T21:21:51.073Z,9.80
2019-05-19T21:24:19.460Z,10.03
2019-05-19T21:26:47.790Z,8.77
2019-05-19T21:29:16.121Z,9.23
2019-05-19T21:31:44.403Z,10.10
2019-05-19T21:34:12.679Z,9.33
2019-05-19T21:36:40.952Z,9.70
2019-05-19T21:39:09.305Z,10.73
2019-05-19T21:41:37.635Z,10.20
2019-05-19T21:44:05.976Z,8.90
2019-05-19T21:46:34.276Z,9.27
2019-05-19T21:49:05.724Z,9.83
2019-05-19T21:54:36.791Z,8.40
2019-05-19T22:00:14.806Z,10.40
2019-05-19T22:02:43.079Z,8.43
2019-05-19T22:05:11.960Z,9.20
2019-05-19T22:07:47.772Z,8.83
2019-05-19T22:10:16.123Z,8.77
2019-05-19T22:12:46.073Z,8.83
2019-05-19T22:15:14.403Z,9.10
2019-05-19T22:17:43.690Z,9.87
2019-05-19T22:20:13.077Z,8.63
2019-05-19T22:22:41.303Z,9.30
2019-05-19T22:25:09.844Z,9.97
2019-05-19T22:27:39.278Z,9.10
2019-05-19T22:30:10.236Z,9.43
2019-05-19T22:32:38.498Z,9.20
2019-05-19T22:35:07.039Z,9.27
2019-05-19T22:37:37.277Z,9.77
2019-05-19T22:40:18.793Z,9.00
2019-05-19T22:42:47.108Z,9.90
2019-05-19T22:45:15.467Z,8.83
2019-05-19T22:47:43.732Z,9.93
2019-05-19T22:50:12.236Z,9.23
2019-05-19T22:52:40.503Z,8.90
2019-05-19T22:55:09.005Z,9.37
2019-05-19T22:57:37.397Z,9.30
2019-05-19T23:00:08.793Z,8.60
2019-05-19T23:02:38.119Z,10.00
2019-05-19T23:05:07.014Z,7.80
2019-05-19T23:07:35.618Z,8.90
2019-05-19T23:10:07.714Z,10.20
2019-05-19T23:12:37.069Z,8.87
2019-05-19T23:15:09.663Z,8.97
2019-05-19T23:17:38.862Z,9.83
2019-05-19T23:20:07.278Z,9.60
2019-05-19T23:22:35.623Z,9.40
2019-05-19T23:25:08.673Z,9.33
2019-05-19T23:27:36.959Z,8.37
2019-05-19T23:30:07.791Z,8.73
2019-05-19T23:32:37.125Z,8.20
2019-05-19T23:35:06.823Z,8.83
2019-05-19T23:37:35.151Z,7.87
2019-05-19T23:40:06.569Z,8.93
2019-05-19T23:42:35.107Z,8.87
2019-05-19T23:45:04.619Z,8.53
2019-05-19T23:47:32.891Z,8.87
2019-05-19T23:50:07.391Z,8.50
2019-05-19T23:52:35.645Z,8.57
2019-05-19T23:55:05.559Z,9.50
2019-05-19T23:57:34.740Z,8.90
